Time;durP1;ratioP1;P1;durP2;ratioP2;P2;SDS_P1;SDS_P2;PMS_P1;PMS_P2;Temp;Humidity;BMP_temperature;BMP_pressure;BME280_temperature;BME280_humidity;BME280_pressure;Samples;Min_cycle;Max_cycle;Signal;HPM_P1;HPM_P2
2021/12/02 00:00:16;;;;;;;10.93;10.20;;;5.90;99.90;;;;;;6218977;23;20241;-77
2021/12/02 00:02:43;;;;;;;10.17;9.67;;;5.90;99.90;;;;;;6218719;23;20219;-79
2021/12/02 00:05:10;;;;;;;10.50;9.90;;;5.90;99.90;;;;;;6218466;23;20163;-79
2021/12/02 00:07:37;;;;;;;10.20;9.70;;;5.90;99.90;;;;;;6218023;23;20164;-78
2021/12/02 00:10:06;;;;;;;10.37;9.87;;;5.80;99.90;;;;;;6219247;23;20199;-79
2021/12/02 00:12:33;;;;;;;10.23;9.63;;;5.80;99.90;;;;;;6218813;23;20191;-79
2021/12/02 00:15:05;;;;;;;10.30;9.73;;;5.80;99.90;;;;;;6218121;23;20556;-79
2021/12/02 00:17:36;;;;;;;11.03;10.43;;;5.80;99.90;;;;;;6217969;23;20155;-79
2021/12/02 00:23:21;;;;;;;11.70;11.10;;;5.70;99.90;;;;;;6191465;23;20187;-78
2021/12/02 00:25:52;;;;;;;11.90;11.27;;;5.70;99.90;;;;;;6218341;23;20160;-79
2021/12/02 00:28:19;;;;;;;11.90;11.30;;;5.70;99.90;;;;;;6217673;23;20598;-79
2021/12/02 00:30:46;;;;;;;11.47;10.87;;;5.60;99.90;;;;;;6216518;23;20172;-79
2021/12/02 00:33:16;;;;;;;11.50;10.90;;;5.60;99.90;;;;;;6216932;23;20262;-76
2021/12/02 00:35:44;;;;;;;11.43;10.83;;;5.70;99.90;;;;;;6218010;23;20172;-78
2021/12/02 00:38:12;;;;;;;11.40;10.80;;;5.70;99.90;;;;;;6218225;23;20171;-79
2021/12/02 00:40:39;;;;;;;11.37;10.70;;;5.70;99.90;;;;;;6217656;23;20163;-79
2021/12/02 00:43:07;;;;;;;11.30;10.70;;;5.60;99.90;;;;;;6218094;23;20466;-79
2021/12/02 00:45:34;;;;;;;11.50;10.90;;;5.60;99.90;;;;;;6216383;23;20431;-78
2021/12/02 00:48:01;;;;;;;11.33;10.73;;;5.60;99.90;;;;;;6217575;23;20168;-79
2021/12/02 00:50:28;;;;;;;11.50;10.90;;;5.60;99.90;;;;;;6218145;23;20170;-79
2021/12/02 00:52:57;;;;;;;11.70;11.10;;;5.60;99.90;;;;;;6217960;23;20253;-78
2021/12/02 00:55:26;;;;;;;11.50;10.90;;;5.60;99.90;;;;;;6218190;23;20630;-79
2021/12/02 00:57:54;;;;;;;11.20;10.60;;;5.50;99.90;;;;;;6191330;23;20190;-77
2021/12/02 01:00:22;;;;;;;11.70;11.10;;;5.50;99.90;;;;;;6218014;23;20167;-78
2021/12/02 01:02:50;;;;;;;11.47;10.87;;;5.50;99.90;;;;;;6217542;23;20214;-78
2021/12/02 01:05:16;;;;;;;11.80;11.20;;;5.50;99.90;;;;;;6216213;23;20171;-78
2021/12/02 01:07:44;;;;;;;11.60;11.00;;;5.50;99.90;;;;;;6217685;23;20167;-79
2021/12/02 01:10:11;;;;;;;11.37;10.77;;;5.50;99.90;;;;;;6216041;23;20195;-78
2021/12/02 01:12:38;;;;;;;11.90;11.30;;;5.50;99.90;;;;;;6217407;23;20234;-79
2021/12/02 01:15:06;;;;;;;12.10;11.50;;;5.50;99.90;;;;;;6217672;23;20164;-79
2021/12/02 01:17:34;;;;;;;11.97;11.30;;;5.50;99.90;;;;;;6217627;23;20168;-79
2021/12/02 01:20:01;;;;;;;12.00;11.40;;;5.50;99.90;;;;;;6218664;23;20222;-79
2021/12/02 01:22:32;;;;;;;12.20;11.60;;;5.50;99.90;;;;;;6216169;23;20187;-79
2021/12/02 01:24:59;;;;;;;12.20;11.60;;;5.50;99.90;;;;;;6217829;23;20172;-78
2021/12/02 01:27:26;;;;;;;12.10;11.50;;;5.50;99.90;;;;;;6215942;23;20183;-79
2021/12/02 01:29:54;;;;;;;12.17;11.57;;;5.50;99.90;;;;;;6218081;23;20557;-79
2021/12/02 01:32:21;;;;;;;11.90;11.23;;;5.50;99.90;;;;;;6217044;23;20183;-77
2021/12/02 01:34:50;;;;;;;12.20;11.40;;;5.40;99.90;;;;;;6216299;23;20242;-79
2021/12/02 01:37:18;;;;;;;11.70;11.10;;;5.50;99.90;;;;;;6217131;23;20242;-78
2021/12/02 01:39:45;;;;;;;11.50;10.90;;;5.40;99.90;;;;;;6189818;23;20172;-78
2021/12/02 01:42:23;;;;;;;11.70;11.00;;;5.40;99.90;;;;;;6217360;23;20780;-79
2021/12/02 01:44:52;;;;;;;12.23;11.43;;;5.40;99.90;;;;;;6214975;23;20156;-76
2021/12/02 01:47:23;;;;;;;11.90;11.30;;;5.40;99.90;;;;;;6217577;23;20167;-79
2021/12/02 01:49:55;;;;;;;12.37;11.57;;;5.40;99.90;;;;;;6191111;23;20164;-79
2021/12/02 01:52:30;;;;;;;12.00;11.40;;;5.40;99.90;;;;;;6217440;23;20266;-79
2021/12/02 01:55:08;;;;;;;12.00;11.40;;;5.40;99.90;;;;;;6217297;23;20269;-79
2021/12/02 01:57:37;;;;;;;11.80;11.20;;;5.40;99.90;;;;;;6217217;23;20202;-79
2021/12/02 02:00:09;;;;;;;11.90;11.23;;;5.40;99.90;;;;;;6217357;23;20221;-79
2021/12/02 02:02:40;;;;;;;11.90;11.20;;;5.40;99.90;;;;;;6217280;23;20570;-79
2021/12/02 02:05:12;;;;;;;11.90;11.10;;;5.40;99.90;;;;;;6217859;23;20168;-78
2021/12/02 02:07:46;;;;;;;11.77;11.17;;;5.40;99.90;;;;;;6189936;23;20224;-77
2021/12/02 02:10:13;;;;;;;12.10;11.50;;;5.40;99.90;;;;;;6217526;23;20569;-78
2021/12/02 02:12:40;;;;;;;12.10;11.47;;;5.40;99.90;;;;;;6215359;23;20214;-79
2021/12/02 02:15:07;;;;;;;12.10;11.50;;;5.40;99.90;;;;;;6217845;23;20186;-78
2021/12/02 02:17:40;;;;;;;12.23;11.57;;;5.40;99.90;;;;;;6217330;23;20225;-78
2021/12/02 02:20:11;;;;;;;12.03;11.43;;;5.40;99.90;;;;;;6217328;23;20160;-79
2021/12/02 02:22:40;;;;;;;12.00;11.40;;;5.40;99.90;;;;;;6215831;23;20214;-79
2021/12/02 02:25:12;;;;;;;12.10;11.50;;;5.40;99.90;;;;;;6217155;23;20800;-78
2021/12/02 02:27:39;;;;;;;12.23;11.53;;;5.30;99.90;;;;;;6189815;23;20164;-77
2021/12/02 02:30:10;;;;;;;12.40;11.60;;;5.40;99.90;;;;;;6213951;23;20246;-76
2021/12/02 02:32:37;;;;;;;12.27;11.60;;;5.30;99.90;;;;;;6190446;23;20195;-78
2021/12/02 02:35:05;;;;;;;11.70;11.10;;;5.20;99.90;;;;;;6215487;23;20199;-79
2021/12/02 02:37:34;;;;;;;11.70;11.10;;;5.20;99.90;;;;;;6216899;23;20486;-78
2021/12/02 02:40:05;;;;;;;11.40;10.70;;;5.10;99.90;;;;;;6217586;23;20275;-78
2021/12/02 02:42:32;;;;;;;11.47;10.87;;;5.10;99.90;;;;;;6215515;23;20191;-79
2021/12/02 02:45:00;;;;;;;11.10;10.50;;;5.00;99.90;;;;;;6217051;23;20242;-79
2021/12/02 02:47:27;;;;;;;11.40;10.80;;;5.00;99.90;;;;;;6216790;23;20168;-79
2021/12/02 02:49:54;;;;;;;11.47;10.80;;;5.10;99.90;;;;;;6216179;23;20206;-78
2021/12/02 02:52:21;;;;;;;11.40;10.80;;;5.00;99.90;;;;;;6191632;23;20214;-79
2021/12/02 02:54:48;;;;;;;11.40;10.80;;;5.00;99.90;;;;;;6218773;23;20241;-79
2021/12/02 02:57:18;;;;;;;11.70;11.10;;;5.00;99.90;;;;;;6218923;23;20173;-79
2021/12/02 02:59:59;;;;;;;11.50;10.90;;;5.00;99.90;;;;;;6219537;23;20238;-79
2021/12/02 03:02:31;;;;;;;11.47;10.77;;;5.00;99.90;;;;;;6218898;23;20183;-79
2021/12/02 03:05:05;;;;;;;11.43;10.50;;;5.00;99.90;;;;;;6217506;23;20167;-78
2021/12/02 03:07:37;;;;;;;12.00;11.30;;;4.90;99.90;;;;;;6219098;23;20155;-78
2021/12/02 03:10:12;;;;;;;11.20;10.60;;;4.80;99.90;;;;;;6219233;23;20487;-78
2021/12/02 03:12:44;;;;;;;11.83;11.13;;;4.70;99.90;;;;;;6217224;23;20246;-78
2021/12/02 03:17:55;;;;;;;11.80;11.17;;;4.60;99.90;;;;;;6218357;23;20179;-78
2021/12/02 03:20:22;;;;;;;12.50;11.80;;;4.60;99.90;;;;;;6218708;23;20622;-77
2021/12/02 03:22:49;;;;;;;11.50;10.80;;;4.60;99.90;;;;;;6218684;23;20183;-79
2021/12/02 03:25:16;;;;;;;12.30;11.30;;;4.60;99.90;;;;;;6217606;23;20171;-78
2021/12/02 03:27:44;;;;;;;11.53;10.93;;;4.60;99.90;;;;;;6218499;23;20526;-79
2021/12/02 03:30:11;;;;;;;11.23;10.63;;;4.70;99.90;;;;;;6218214;23;20226;-78
2021/12/02 03:32:40;;;;;;;11.13;10.53;;;4.70;99.90;;;;;;6217577;23;20191;-79
2021/12/02 03:35:08;;;;;;;11.03;10.43;;;4.80;99.90;;;;;;6219837;23;20183;-80
2021/12/02 03:37:35;;;;;;;12.20;11.50;;;4.80;99.90;;;;;;6218530;23;20167;-78
2021/12/02 03:40:03;;;;;;;12.00;11.40;;;4.80;99.90;;;;;;6221078;23;20164;-78
2021/12/02 03:42:30;;;;;;;11.50;10.80;;;4.90;99.90;;;;;;6216910;23;20219;-82
2021/12/02 03:44:58;;;;;;;11.90;11.10;;;4.90;99.90;;;;;;6219119;23;20610;-82
2021/12/02 03:47:25;;;;;;;11.57;10.97;;;4.90;99.90;;;;;;6215597;23;20222;-82
2021/12/02 03:49:51;;;;;;;12.63;11.83;;;4.90;99.90;;;;;;6216120;23;20172;-79
2021/12/02 03:52:18;;;;;;;11.40;10.80;;;4.90;99.90;;;;;;6217092;23;20191;-81
2021/12/02 03:54:45;;;;;;;11.70;11.00;;;4.90;99.90;;;;;;6217476;23;20654;-81
2021/12/02 03:57:12;;;;;;;11.50;10.90;;;4.80;99.90;;;;;;6216792;23;20253;-80
2021/12/02 03:59:39;;;;;;;11.17;10.57;;;4.90;99.90;;;;;;6217165;23;20174;-81
2021/12/02 04:02:07;;;;;;;11.30;10.70;;;4.80;99.90;;;;;;6191620;23;20175;-81
2021/12/02 04:04:34;;;;;;;11.30;10.70;;;4.80;99.90;;;;;;6216733;23;20680;-81
2021/12/02 04:07:00;;;;;;;11.80;11.10;;;4.80;99.90;;;;;;6217895;23;20167;-80
2021/12/02 04:09:34;;;;;;;11.70;10.93;;;4.80;99.90;;;;;;6218268;23;20194;-80
2021/12/02 04:12:05;;;;;;;11.60;11.00;;;4.80;99.90;;;;;;6218486;23;20485;-80
2021/12/02 04:14:36;;;;;;;11.90;11.20;;;4.80;99.90;;;;;;6216546;23;20692;-80
2021/12/02 04:17:04;;;;;;;12.50;11.80;;;4.80;99.90;;;;;;6217964;23;20152;-80
2021/12/02 04:19:34;;;;;;;12.80;12.10;;;4.80;99.90;;;;;;6215725;23;20210;-80
2021/12/02 04:22:00;;;;;;;11.70;11.10;;;4.80;99.90;;;;;;6214558;23;20178;-77
2021/12/02 04:24:28;;;;;;;12.67;11.83;;;4.80;99.90;;;;;;6214307;23;20646;-78
2021/12/02 04:26:55;;;;;;;12.77;12.07;;;4.80;99.90;;;;;;6215580;23;20626;-78
2021/12/02 04:29:23;;;;;;;12.10;11.40;;;4.80;99.90;;;;;;6215287;23;20155;-77
2021/12/02 04:31:51;;;;;;;12.80;12.10;;;4.80;99.90;;;;;;6215861;23;20171;-78
2021/12/02 04:34:18;;;;;;;13.43;12.73;;;4.80;99.90;;;;;;6215979;23;20187;-77
2021/12/02 04:36:46;;;;;;;13.00;12.10;;;4.80;99.90;;;;;;6214373;23;20700;-78
2021/12/02 04:39:13;;;;;;;12.30;11.60;;;4.80;99.90;;;;;;6216657;23;20214;-78
2021/12/02 04:41:40;;;;;;;12.70;12.00;;;4.80;99.90;;;;;;6218883;23;20168;-77
2021/12/02 04:44:07;;;;;;;12.30;11.60;;;4.70;99.90;;;;;;6218503;23;20183;-77
2021/12/02 04:46:34;;;;;;;12.60;11.80;;;4.70;99.90;;;;;;6216918;23;20175;-77
2021/12/02 04:49:01;;;;;;;13.00;12.30;;;4.70;99.90;;;;;;6215979;23;20167;-76
2021/12/02 04:51:28;;;;;;;12.00;11.33;;;4.70;99.90;;;;;;6212844;23;20633;-76
2021/12/02 04:53:56;;;;;;;12.50;11.70;;;4.60;99.90;;;;;;6212808;23;20662;-76
2021/12/02 04:56:23;;;;;;;12.10;11.40;;;4.60;99.90;;;;;;6212704;23;20186;-78
2021/12/02 04:58:50;;;;;;;12.50;11.70;;;4.60;99.90;;;;;;6214850;23;20171;-76
2021/12/02 05:01:17;;;;;;;11.70;11.10;;;4.60;99.90;;;;;;6214624;23;20198;-76
2021/12/02 05:03:44;;;;;;;11.50;10.80;;;4.70;99.90;;;;;;6214742;23;20183;-79
2021/12/02 05:06:10;;;;;;;12.07;11.10;;;4.70;99.90;;;;;;6216946;23;20175;-78
2021/12/02 05:08:37;;;;;;;12.00;11.40;;;4.70;99.90;;;;;;6218037;23;20226;-78
2021/12/02 05:11:06;;;;;;;12.50;11.80;;;4.70;99.90;;;;;;6217687;23;20171;-77
2021/12/02 05:13:33;;;;;;;12.63;11.90;;;4.70;99.90;;;;;;6217184;23;20230;-77
2021/12/02 05:16:00;;;;;;;12.03;11.43;;;4.80;99.90;;;;;;6218112;23;20242;-79
2021/12/02 05:18:26;;;;;;;11.97;11.30;;;4.80;99.90;;;;;;6218281;23;20171;-77
2021/12/02 05:20:53;;;;;;;13.20;12.40;;;4.70;99.90;;;;;;6219562;23;20163;-78
2021/12/02 05:23:20;;;;;;;13.30;12.40;;;4.70;99.90;;;;;;6212928;23;20199;-76
2021/12/02 05:25:47;;;;;;;12.97;12.17;;;4.80;99.90;;;;;;6214580;23;20164;-78
2021/12/02 05:28:17;;;;;;;12.80;12.10;;;4.80;99.90;;;;;;6218589;23;20170;-78
2021/12/02 05:30:45;;;;;;;12.50;11.70;;;4.70;99.90;;;;;;6218436;23;20179;-78
2021/12/02 05:33:12;;;;;;;12.60;11.90;;;4.70;99.90;;;;;;6191058;23;20253;-77
2021/12/02 05:35:39;;;;;;;12.33;11.73;;;4.80;99.90;;;;;;6218780;23;20192;-78
2021/12/02 05:38:06;;;;;;;12.80;12.00;;;4.80;99.90;;;;;;6218769;23;20626;-79
2021/12/02 05:40:33;;;;;;;12.70;12.00;;;4.70;99.90;;;;;;6217751;23;20171;-78
2021/12/02 05:43:00;;;;;;;12.60;11.90;;;4.80;99.90;;;;;;6218205;23;20183;-79
2021/12/02 05:45:28;;;;;;;12.27;11.57;;;4.80;99.90;;;;;;6217227;23;20168;-78
2021/12/02 05:47:55;;;;;;;13.00;12.20;;;4.80;99.90;;;;;;6218187;23;20175;-78
2021/12/02 05:50:22;;;;;;;13.00;12.30;;;4.80;99.90;;;;;;6191684;23;20562;-79
2021/12/02 05:52:49;;;;;;;12.90;12.10;;;4.70;99.90;;;;;;6218745;23;20191;-79
2021/12/02 05:55:16;;;;;;;13.10;12.20;;;4.70;99.90;;;;;;6216356;23;20245;-78
2021/12/02 05:57:43;;;;;;;12.13;11.53;;;4.70;99.90;;;;;;6217675;23;20556;-79
2021/12/02 06:00:10;;;;;;;12.80;12.10;;;4.70;99.90;;;;;;6217913;23;20167;-79
2021/12/02 06:02:41;;;;;;;12.70;11.90;;;4.70;99.90;;;;;;6218206;23;20191;-79
2021/12/02 06:05:09;;;;;;;12.47;11.77;;;4.70;99.90;;;;;;6217510;23;20229;-79
2021/12/02 06:07:37;;;;;;;12.40;11.70;;;4.70;99.90;;;;;;6191645;23;20202;-78
2021/12/02 06:10:04;;;;;;;12.57;11.87;;;4.70;99.90;;;;;;6214654;23;20175;-77
2021/12/02 06:12:31;;;;;;;12.53;11.83;;;4.70;99.90;;;;;;6214077;23;20570;-76
2021/12/02 06:14:58;;;;;;;12.70;11.90;;;4.80;99.90;;;;;;6215619;23;20249;-78
2021/12/02 06:17:25;;;;;;;12.90;12.10;;;4.80;99.90;;;;;;6214634;23;20167;-78
2021/12/02 06:19:53;;;;;;;13.17;12.40;;;4.80;99.90;;;;;;6214758;23;20173;-78
2021/12/02 06:22:20;;;;;;;12.93;12.23;;;4.80;99.90;;;;;;6211760;23;20224;-79
2021/12/02 06:24:48;;;;;;;13.03;12.33;;;4.80;99.90;;;;;;6215295;23;20167;-78
2021/12/02 06:27:15;;;;;;;13.40;12.60;;;4.80;99.90;;;;;;6219761;23;20198;-77
2021/12/02 06:29:42;;;;;;;12.70;12.00;;;4.80;99.90;;;;;;6220116;23;20213;-79
2021/12/02 06:32:09;;;;;;;12.90;12.13;;;4.80;99.90;;;;;;6218885;23;20246;-78
2021/12/02 06:34:36;;;;;;;13.23;12.43;;;4.80;99.90;;;;;;6217993;23;20194;-79
2021/12/02 06:37:05;;;;;;;13.53;12.73;;;4.80;99.90;;;;;;6219346;23;20229;-80
2021/12/02 06:39:32;;;;;;;14.23;13.23;;;4.80;99.90;;;;;;6220380;23;20628;-78
2021/12/02 06:41:59;;;;;;;14.63;13.63;;;4.90;99.90;;;;;;6219528;23;20494;-80
2021/12/02 06:44:27;;;;;;;13.27;12.47;;;4.90;99.90;;;;;;6216067;23;20690;-76
2021/12/02 06:46:54;;;;;;;13.47;12.60;;;4.90;99.90;;;;;;6214743;23;20198;-76
2021/12/02 06:49:21;;;;;;;12.77;12.03;;;4.90;99.90;;;;;;6216152;23;20630;-77
2021/12/02 06:51:47;;;;;;;13.00;12.30;;;4.90;99.90;;;;;;6214874;23;20179;-77
2021/12/02 06:54:15;;;;;;;12.70;12.00;;;4.90;99.90;;;;;;6218393;23;20245;-79
2021/12/02 06:56:42;;;;;;;12.80;12.10;;;4.90;99.90;;;;;;6219685;23;20160;-78
2021/12/02 06:59:09;;;;;;;12.60;11.90;;;4.90;99.90;;;;;;6219543;23;20167;-78
2021/12/02 07:01:36;;;;;;;12.97;12.17;;;4.90;99.90;;;;;;6218051;23;20625;-79
2021/12/02 07:04:03;;;;;;;12.70;12.00;;;4.90;99.90;;;;;;6219894;23;20210;-79
2021/12/02 07:06:29;;;;;;;4.40;4.07;;;4.90;99.90;;;;;;6221014;23;20172;-79
2021/12/02 07:08:57;;;;;;;4.20;3.90;;;4.90;99.90;;;;;;6219680;23;20172;-78
2021/12/02 07:11:25;;;;;;;11.23;10.43;;;4.90;99.90;;;;;;6217302;23;20171;-76
2021/12/02 07:13:56;;;;;;;5.40;5.10;;;4.90;99.90;;;;;;6216168;23;20210;-75
2021/12/02 07:16:23;;;;;;;4.33;4.03;;;4.90;99.90;;;;;;6219251;23;20251;-79
2021/12/02 07:18:54;;;;;;;10.17;9.47;;;4.80;99.90;;;;;;6215303;23;20200;-79
2021/12/02 07:21:21;;;;;;;13.53;12.83;;;4.80;99.90;;;;;;6193378;23;20171;-79
2021/12/02 07:23:49;;;;;;;7.80;7.30;;;4.70;99.90;;;;;;6192715;23;20252;-79
2021/12/02 07:26:16;;;;;;;6.13;5.70;;;4.60;99.90;;;;;;6192501;23;20171;-79
2021/12/02 07:28:46;;;;;;;3.93;3.63;;;4.60;99.90;;;;;;6192608;23;20191;-79
2021/12/02 07:31:14;;;;;;;9.20;8.70;;;4.50;99.90;;;;;;6192844;23;20164;-79
2021/12/02 07:33:47;;;;;;;12.23;11.53;;;4.50;99.90;;;;;;6218695;23;20214;-79
2021/12/02 07:36:14;;;;;;;4.37;3.97;;;4.50;99.90;;;;;;6190706;23;20214;-78
2021/12/02 07:38:41;;;;;;;10.80;10.00;;;4.50;99.90;;;;;;6190883;23;20294;-79
2021/12/02 07:41:08;;;;;;;4.73;4.43;;;4.50;99.90;;;;;;6191170;23;20201;-79
2021/12/02 07:43:39;;;;;;;7.50;7.00;;;4.50;99.90;;;;;;6191768;23;20167;-79
2021/12/02 07:46:09;;;;;;;4.57;4.27;;;4.60;99.90;;;;;;6191372;23;20546;-79
2021/12/02 07:48:36;;;;;;;4.43;4.17;;;4.60;99.90;;;;;;6190461;23;20199;-79
2021/12/02 07:51:07;;;;;;;3.83;3.43;;;4.70;99.90;;;;;;6193450;23;20171;-78
2021/12/02 07:53:35;;;;;;;4.90;4.50;;;4.80;99.90;;;;;;6190220;23;20233;-78
2021/12/02 07:56:04;;;;;;;3.97;3.67;;;4.90;99.90;;;;;;6194016;23;20191;-79
2021/12/02 07:58:32;;;;;;;10.60;9.90;;;5.00;99.90;;;;;;6192348;23;20202;-79
2021/12/02 08:01:01;;;;;;;4.90;4.50;;;5.10;99.90;;;;;;6196241;23;20569;-79
2021/12/02 08:03:29;;;;;;;3.90;3.60;;;5.10;99.90;;;;;;6218602;23;20214;-79
2021/12/02 08:05:56;;;;;;;3.83;3.53;;;5.30;99.90;;;;;;6190832;23;20176;-79
2021/12/02 08:08:23;;;;;;;4.10;3.80;;;5.40;99.90;;;;;;6191439;23;20178;-78
2021/12/02 08:10:50;;;;;;;7.20;6.50;;;5.40;99.90;;;;;;6218137;23;20164;-79
2021/12/02 08:13:17;;;;;;;6.50;6.03;;;5.40;99.90;;;;;;6190463;23;20515;-79
2021/12/02 08:15:44;;;;;;;7.63;6.97;;;5.40;99.90;;;;;;6216920;23;20176;-79
2021/12/02 08:18:11;;;;;;;7.23;6.60;;;5.30;99.90;;;;;;6190027;23;20175;-79
2021/12/02 08:20:39;;;;;;;8.77;8.17;;;5.30;99.90;;;;;;6216617;23;20478;-78
2021/12/02 08:23:06;;;;;;;4.80;3.50;;;5.20;99.90;;;;;;6215719;23;20584;-78
2021/12/02 08:25:33;;;;;;;5.97;5.57;;;5.10;99.90;;;;;;6188988;23;20557;-78
2021/12/02 08:28:01;;;;;;;9.03;8.43;;;5.10;99.90;;;;;;6213825;23;20167;-78
2021/12/02 08:30:29;;;;;;;6.97;6.47;;;5.10;99.90;;;;;;6188963;23;20199;-78
2021/12/02 08:32:58;;;;;;;6.00;4.00;;;5.10;99.90;;;;;;6215357;23;20175;-78
2021/12/02 08:35:26;;;;;;;10.37;9.67;;;5.00;99.90;;;;;;6188792;23;20191;-79
2021/12/02 08:37:58;;;;;;;5.73;5.33;;;5.10;99.90;;;;;;6188927;23;20171;-78
2021/12/02 08:40:31;;;;;;;8.80;8.27;;;5.00;99.90;;;;;;6214084;23;20191;-79
2021/12/02 08:42:59;;;;;;;4.43;4.03;;;5.00;99.90;;;;;;6189009;23;20187;-79
2021/12/02 08:45:27;;;;;;;4.30;3.30;;;5.00;99.90;;;;;;6188805;23;20549;-78
2021/12/02 08:47:54;;;;;;;9.70;9.03;;;5.00;99.90;;;;;;6188312;23;20657;-79
2021/12/02 08:50:22;;;;;;;3.30;3.10;;;5.00;99.90;;;;;;6188247;23;20195;-78
2021/12/02 08:52:50;;;;;;;4.00;3.70;;;5.00;99.90;;;;;;6193042;23;20172;-78
2021/12/02 08:55:21;;;;;;;4.50;4.10;;;4.90;99.90;;;;;;6215801;23;20175;-79
2021/12/02 08:57:50;;;;;;;9.77;9.17;;;5.10;99.90;;;;;;6217517;23;20175;-80
2021/12/02 09:00:19;;;;;;;5.87;5.47;;;5.20;99.90;;;;;;6227264;23;20193;-80
2021/12/02 09:02:46;;;;;;;9.53;8.93;;;5.20;99.90;;;;;;6201522;23;20168;-80
2021/12/02 09:05:13;;;;;;;7.57;7.07;;;5.30;99.90;;;;;;6227654;23;20167;-80
2021/12/02 09:07:41;;;;;;;3.70;3.50;;;5.30;99.90;;;;;;6226034;23;20182;-79
2021/12/02 09:10:09;;;;;;;5.00;4.60;;;5.20;99.90;;;;;;6228717;23;20192;-80
2021/12/02 09:12:38;;;;;;;4.83;4.60;;;5.20;99.90;;;;;;6201966;23;20617;-79
2021/12/02 09:15:07;;;;;;;3.87;3.50;;;5.30;99.90;;;;;;6228154;23;20194;-79
2021/12/02 09:17:34;;;;;;;3.10;2.90;;;5.30;99.90;;;;;;6226996;23;20163;-80
2021/12/02 09:20:01;;;;;;;5.60;5.30;;;5.40;99.90;;;;;;6225713;23;20195;-80
2021/12/02 09:22:28;;;;;;;5.13;4.77;;;5.40;99.90;;;;;;6200343;23;20171;-79
2021/12/02 09:24:55;;;;;;;3.10;2.90;;;5.40;99.90;;;;;;6227576;23;20197;-80
2021/12/02 09:27:22;;;;;;;4.17;3.87;;;5.50;99.90;;;;;;6199038;23;20697;-79
2021/12/02 09:29:50;;;;;;;6.70;6.20;;;5.60;99.90;;;;;;6225784;23;20187;-79
2021/12/02 09:32:17;;;;;;;7.17;6.67;;;5.70;99.90;;;;;;6225847;23;20619;-79
2021/12/02 09:34:44;;;;;;;6.37;5.97;;;5.90;99.90;;;;;;6225164;23;20580;-79
2021/12/02 09:37:11;;;;;;;11.97;11.27;;;6.00;99.90;;;;;;6224887;23;20223;-79
2021/12/02 09:39:38;;;;;;;4.87;4.60;;;6.20;99.90;;;;;;6225047;23;20662;-79
2021/12/02 09:42:10;;;;;;;3.37;3.17;;;6.50;99.90;;;;;;6197400;23;20225;-79
2021/12/02 09:44:37;;;;;;;13.10;12.20;;;6.80;99.90;;;;;;6197331;23;20223;-80
2021/12/02 09:47:05;;;;;;;12.33;11.60;;;7.00;99.90;;;;;;6196380;23;20576;-80
2021/12/02 09:49:33;;;;;;;4.40;4.10;;;7.20;99.90;;;;;;6197018;23;20195;-79
2021/12/02 09:52:02;;;;;;;3.20;3.00;;;7.20;99.90;;;;;;6223527;23;20224;-80
2021/12/02 09:54:32;;;;;;;3.00;2.80;;;7.30;99.90;;;;;;6195207;23;20264;-79
2021/12/02 09:57:02;;;;;;;3.33;3.03;;;7.30;99.90;;;;;;6195304;23;20193;-79
2021/12/02 09:59:33;;;;;;;3.17;2.97;;;7.20;99.90;;;;;;6194688;23;20197;-80
2021/12/02 10:02:03;;;;;;;3.30;3.00;;;7.10;99.90;;;;;;6221435;23;20162;-79
2021/12/02 10:04:34;;;;;;;3.00;2.80;;;7.00;99.90;;;;;;6221722;23;20195;-79
2021/12/02 10:07:08;;;;;;;3.00;2.80;;;7.00;99.90;;;;;;6194143;23;20171;-80
2021/12/02 10:09:41;;;;;;;4.43;3.00;;;7.00;99.90;;;;;;6221388;23;20197;-80
2021/12/02 10:12:15;;;;;;;3.03;2.83;;;7.00;99.90;;;;;;6192981;23;20168;-79
2021/12/02 10:14:49;;;;;;;3.33;2.97;;;7.10;99.90;;;;;;6193176;23;20158;-80
2021/12/02 10:17:20;;;;;;;2.93;2.70;;;7.10;99.90;;;;;;6219770;23;20669;-79
2021/12/02 10:20:11;;;;;;;3.00;2.80;;;7.10;99.90;;;;;;6193735;23;20200;-79
2021/12/02 10:22:38;;;;;;;3.20;2.90;;;7.20;99.90;;;;;;6192562;23;20166;-79
2021/12/02 10:25:06;;;;;;;3.47;3.20;;;7.20;99.90;;;;;;6191457;23;20236;-79
2021/12/02 10:27:33;;;;;;;3.60;3.30;;;7.20;99.90;;;;;;6191620;23;20172;-79
2021/12/02 10:30:00;;;;;;;3.37;3.07;;;7.10;99.90;;;;;;6218917;23;20725;-80
2021/12/02 10:32:30;;;;;;;4.23;3.93;;;7.10;99.90;;;;;;6191445;23;20202;-79
2021/12/02 10:35:01;;;;;;;5.03;4.73;;;7.00;99.90;;;;;;6218813;23;20149;-79
2021/12/02 10:37:30;;;;;;;5.50;5.03;;;6.90;99.90;;;;;;6191547;23;20193;-79
2021/12/02 10:40:01;;;;;;;5.60;5.13;;;6.90;99.90;;;;;;6190117;23;20196;-79
2021/12/02 10:42:29;;;;;;;12.20;11.50;;;6.80;99.90;;;;;;6216118;23;20237;-78
2021/12/02 10:45:00;;;;;;;12.20;11.40;;;6.70;99.90;;;;;;6215416;23;20173;-79
2021/12/02 10:47:27;;;;;;;11.27;10.57;;;6.60;99.90;;;;;;6215041;23;20183;-79
2021/12/02 10:49:57;;;;;;;3.73;3.53;;;6.40;99.90;;;;;;6216124;23;20194;-79
2021/12/02 10:52:27;;;;;;;4.40;3.20;;;6.20;99.90;;;;;;6188407;23;20180;-79
2021/12/02 10:55:00;;;;;;;9.00;8.40;;;6.20;99.90;;;;;;6215151;23;20150;-79
2021/12/02 10:57:29;;;;;;;11.37;10.67;;;6.20;99.90;;;;;;6189102;23;20273;-78
2021/12/02 10:59:57;;;;;;;11.43;10.80;;;6.10;99.90;;;;;;6223271;23;20188;-79
2021/12/02 11:02:27;;;;;;;11.57;10.97;;;6.00;99.90;;;;;;6199710;23;20182;-80
2021/12/02 11:04:57;;;;;;;11.20;10.60;;;6.00;99.90;;;;;;6200035;23;20169;-79
2021/12/02 11:07:28;;;;;;;4.27;3.80;;;6.10;99.90;;;;;;6226055;23;20167;-79
2021/12/02 11:09:57;;;;;;;7.27;6.87;;;6.20;99.90;;;;;;6199311;23;20193;-80
2021/12/02 11:12:27;;;;;;;3.23;3.07;;;6.30;99.90;;;;;;6199826;23;20181;-80
2021/12/02 11:15:04;;;;;;;5.23;4.87;;;6.40;99.90;;;;;;6228098;23;20164;-79
2021/12/02 11:17:33;;;;;;;7.13;6.73;;;6.40;99.90;;;;;;6200218;23;20235;-79
2021/12/02 11:20:04;;;;;;;2.83;2.63;;;6.30;99.90;;;;;;6216964;23;20268;-79
2021/12/02 11:22:33;;;;;;;7.93;7.50;;;6.30;99.90;;;;;;6217070;23;20227;-79
2021/12/02 11:25:01;;;;;;;3.00;2.80;;;6.20;99.90;;;;;;6216062;23;20689;-79
2021/12/02 11:27:31;;;;;;;4.27;3.93;;;6.00;99.90;;;;;;6214514;23;20174;-79
2021/12/02 11:30:05;;;;;;;6.33;5.93;;;6.00;99.90;;;;;;6190991;23;20197;-79
2021/12/02 11:32:38;;;;;;;3.37;3.17;;;5.90;99.90;;;;;;6217387;23;20159;-79
2021/12/02 11:35:15;;;;;;;4.87;4.57;;;5.80;99.90;;;;;;6189745;23;20173;-78
2021/12/02 11:37:46;;;;;;;2.80;2.60;;;5.80;99.90;;;;;;6216708;23;20222;-79
2021/12/02 11:40:16;;;;;;;5.47;5.17;;;5.60;99.90;;;;;;6190289;23;20197;-79
2021/12/02 11:42:43;;;;;;;11.10;10.50;;;5.60;99.90;;;;;;6215817;23;20173;-79
2021/12/02 11:45:13;;;;;;;12.60;11.80;;;5.60;99.90;;;;;;6189876;23;20225;-79
2021/12/02 11:47:40;;;;;;;12.10;11.40;;;5.50;99.90;;;;;;6190409;23;20195;-78
2021/12/02 11:50:10;;;;;;;11.90;11.30;;;5.50;99.90;;;;;;6189359;23;20809;-79
2021/12/02 11:52:38;;;;;;;12.07;11.47;;;5.50;99.90;;;;;;6216260;23;20170;-78
2021/12/02 11:55:10;;;;;;;11.97;11.37;;;5.50;99.90;;;;;;6216185;23;20552;-79
2021/12/02 11:57:37;;;;;;;12.00;11.40;;;5.60;99.90;;;;;;6189694;23;20189;-79
2021/12/02 12:00:08;;;;;;;11.73;11.07;;;5.60;99.90;;;;;;6215991;23;20187;-79
2021/12/02 12:02:46;;;;;;;11.90;11.30;;;5.60;99.90;;;;;;6216930;23;20234;-79
2021/12/02 12:05:14;;;;;;;11.83;11.23;;;5.60;99.90;;;;;;6189777;23;20178;-79
2021/12/02 12:07:46;;;;;;;13.37;12.67;;;5.70;99.90;;;;;;6226253;23;20219;-79
2021/12/02 12:10:28;;;;;;;11.53;10.93;;;5.80;99.90;;;;;;6202041;23;20247;-79
2021/12/02 12:13:13;;;;;;;11.70;11.00;;;5.80;99.90;;;;;;6227963;23;20183;-80
2021/12/02 12:15:42;;;;;;;12.40;11.70;;;5.80;99.90;;;;;;6229308;23;20152;-80
2021/12/02 12:18:10;;;;;;;11.60;11.00;;;5.80;99.90;;;;;;6202063;23;20222;-80
2021/12/02 12:21:11;;;;;;;12.00;11.30;;;5.70;99.90;;;;;;6202676;23;20172;-80
2021/12/02 12:23:44;;;;;;;11.33;10.70;;;5.60;99.90;;;;;;6202406;23;20162;-79
2021/12/02 12:26:19;;;;;;;12.07;11.47;;;5.50;99.90;;;;;;6227869;23;20164;-80
2021/12/02 12:29:17;;;;;;;12.03;11.43;;;5.40;99.90;;;;;;6225958;23;20575;-79
2021/12/02 12:32:49;;;;;;;12.10;11.50;;;5.30;99.90;;;;;;6200656;23;20219;-79
2021/12/02 12:35:25;;;;;;;12.03;11.33;;;5.20;99.90;;;;;;6225331;23;20176;-79
2021/12/02 12:37:54;;;;;;;12.33;11.67;;;5.10;99.90;;;;;;6228802;23;20194;-79
2021/12/02 12:40:25;;;;;;;12.23;11.60;;;5.10;99.90;;;;;;6201933;23;20198;-79
2021/12/02 12:43:26;;;;;;;11.90;11.30;;;5.10;99.90;;;;;;6228653;23;20186;-79
2021/12/02 12:46:15;;;;;;;12.60;11.70;;;5.10;99.90;;;;;;6202374;23;20163;-79
2021/12/02 12:48:43;;;;;;;12.67;11.97;;;5.20;99.90;;;;;;6228107;23;20193;-80
2021/12/02 12:51:19;;;;;;;12.03;11.43;;;5.10;99.90;;;;;;6228119;23;20164;-80
2021/12/02 12:53:49;;;;;;;12.90;12.20;;;5.10;99.90;;;;;;6226826;23;20163;-79
2021/12/02 12:56:18;;;;;;;12.60;12.00;;;5.10;99.90;;;;;;6201140;23;20172;-80
2021/12/02 12:59:04;;;;;;;12.77;12.07;;;5.10;99.90;;;;;;6201924;23;20199;-79